sensor_id;sensor_type;location;lat;lon;timestamp;pressure;altitude;pressure_sealevel;temperature;humidity
56912;BME280;42800;53.928;27.662;2023-07-29T00:02:09;98470.34;;;16.57;100.00
56912;BME280;42800;53.928;27.662;2023-07-29T00:04:35;98472.38;;;16.53;100.00
56912;BME280;42800;53.928;27.662;2023-07-29T00:07:01;98456.69;;;16.46;100.00
56912;BME280;42800;53.928;27.662;2023-07-29T00:09:27;98445.91;;;16.52;100.00
56912;BME280;42800;53.928;27.662;2023-07-29T00:11:53;98445.75;;;16.39;100.00
56912;BME280;42800;53.928;27.662;2023-07-29T00:14:19;98429.69;;;16.31;100.00
56912;BME280;42800;53.928;27.662;2023-07-29T00:16:45;98425.31;;;16.33;100.00
56912;BME280;42800;53.928;27.662;2023-07-29T00:19:11;98419.72;;;16.37;100.00
56912;BME280;42800;53.928;27.662;2023-07-29T00:21:37;98409.47;;;16.34;100.00
56912;BME280;42800;53.928;27.662;2023-07-29T00:24:03;98414.72;;;16.28;100.00
56912;BME280;42800;53.928;27.662;2023-07-29T00:26:29;98413.50;;;16.29;100.00
56912;BME280;42800;53.928;27.662;2023-07-29T00:28:55;98408.47;;;16.24;100.00
56912;BME280;42800;53.928;27.662;2023-07-29T00:31:21;98397.53;;;16.17;100.00
56912;BME280;42800;53.928;27.662;2023-07-29T00:33:48;98385.13;;;16.25;100.00
56912;BME280;42800;53.928;27.662;2023-07-29T00:36:14;98405.63;;;16.28;100.00
56912;BME280;42800;53.928;27.662;2023-07-29T00:38:40;98404.34;;;16.09;100.00
56912;BME280;42800;53.928;27.662;2023-07-29T00:41:05;98398.53;;;15.80;100.00
56912;BME280;42800;53.928;27.662;2023-07-29T00:43:32;98380.91;;;15.70;100.00
56912;BME280;42800;53.928;27.662;2023-07-29T00:45:59;98374.00;;;15.54;100.00
56912;BME280;42800;53.928;27.662;2023-07-29T00:48:26;98360.84;;;15.62;100.00
56912;BME280;42800;53.928;27.662;2023-07-29T00:50:53;98334.09;;;15.83;100.00
56912;BME280;42800;53.928;27.662;2023-07-29T00:53:19;98336.91;;;16.03;100.00
56912;BME280;42800;53.928;27.662;2023-07-29T00:55:45;98363.66;;;15.59;100.00
56912;BME280;42800;53.928;27.662;2023-07-29T00:58:12;98359.66;;;15.90;100.00
56912;BME280;42800;53.928;27.662;2023-07-29T01:00:38;98351.69;;;15.69;100.00
56912;BME280;42800;53.928;27.662;2023-07-29T01:03:04;98335.38;;;15.51;100.00
56912;BME280;42800;53.928;27.662;2023-07-29T01:05:36;98312.75;;;15.33;100.00
56912;BME280;42800;53.928;27.662;2023-07-29T01:08:09;98304.44;;;15.36;100.00
56912;BME280;42800;53.928;27.662;2023-07-29T01:10:46;98293.69;;;15.65;100.00
56912;BME280;42800;53.928;27.662;2023-07-29T01:13:20;98294.06;;;15.44;100.00
56912;BME280;42800;53.928;27.662;2023-07-29T01:15:53;98292.66;;;15.56;100.00
56912;BME280;42800;53.928;27.662;2023-07-29T01:18:23;98286.44;;;15.51;100.00
56912;BME280;42800;53.928;27.662;2023-07-29T01:20:53;98266.50;;;15.64;100.00
56912;BME280;42800;53.928;27.662;2023-07-29T01:23:23;98281.53;;;15.36;100.00
56912;BME280;42800;53.928;27.662;2023-07-29T01:25:49;98266.91;;;15.39;100.00
56912;BME280;42800;53.928;27.662;2023-07-29T01:28:15;98259.19;;;15.77;100.00
56912;BME280;42800;53.928;27.662;2023-07-29T01:30:42;98282.59;;;15.92;100.00
56912;BME280;42800;53.928;27.662;2023-07-29T01:33:14;98302.22;;;15.51;100.00
56912;BME280;42800;53.928;27.662;2023-07-29T01:35:45;98263.28;;;15.69;100.00
56912;BME280;42800;53.928;27.662;2023-07-29T01:38:17;98267.94;;;15.95;100.00
56912;BME280;42800;53.928;27.662;2023-07-29T01:40:44;98286.97;;;16.13;100.00
56912;BME280;42800;53.928;27.662;2023-07-29T01:43:11;98299.53;;;16.18;100.00
56912;BME280;42800;53.928;27.662;2023-07-29T01:45:38;98313.59;;;16.27;100.00
56912;BME280;42800;53.928;27.662;2023-07-29T01:48:05;98313.22;;;16.25;100.00
56912;BME280;42800;53.928;27.662;2023-07-29T01:50:31;98315.53;;;16.07;100.00
56912;BME280;42800;53.928;27.662;2023-07-29T01:52:57;98321.72;;;16.14;100.00
56912;BME280;42800;53.928;27.662;2023-07-29T01:55:23;98307.41;;;16.19;100.00
56912;BME280;42800;53.928;27.662;2023-07-29T01:57:50;98288.41;;;15.51;100.00
56912;BME280;42800;53.928;27.662;2023-07-29T02:00:17;98253.50;;;16.08;100.00
56912;BME280;42800;53.928;27.662;2023-07-29T02:02:44;98273.25;;;16.30;100.00
56912;BME280;42800;53.928;27.662;2023-07-29T02:05:09;98293.38;;;16.30;100.00
56912;BME280;42800;53.928;27.662;2023-07-29T02:07:35;98306.22;;;16.40;100.00
56912;BME280;42800;53.928;27.662;2023-07-29T02:10:01;98310.06;;;16.46;100.00
56912;BME280;42800;53.928;27.662;2023-07-29T02:12:27;98314.09;;;16.42;100.00
56912;BME280;42800;53.928;27.662;2023-07-29T02:14:54;98305.78;;;16.42;100.00
56912;BME280;42800;53.928;27.662;2023-07-29T02:17:20;98309.56;;;16.08;100.00
56912;BME280;42800;53.928;27.662;2023-07-29T02:19:46;98291.25;;;16.38;100.00
56912;BME280;42800;53.928;27.662;2023-07-29T02:22:13;98301.16;;;16.35;100.00
56912;BME280;42800;53.928;27.662;2023-07-29T02:24:40;98303.75;;;16.26;100.00
56912;BME280;42800;53.928;27.662;2023-07-29T02:27:06;98289.00;;;16.09;100.00
56912;BME280;42800;53.928;27.662;2023-07-29T02:29:32;98279.63;;;16.46;100.00
56912;BME280;42800;53.928;27.662;2023-07-29T02:31:59;98309.25;;;16.46;100.00
56912;BME280;42800;53.928;27.662;2023-07-29T02:34:25;98320.28;;;16.50;100.00
56912;BME280;42800;53.928;27.662;2023-07-29T02:36:51;98330.19;;;16.47;100.00
56912;BME280;42800;53.928;27.662;2023-07-29T02:39:17;98325.94;;;16.42;100.00
56912;BME280;42800;53.928;27.662;2023-07-29T02:41:43;98327.22;;;16.58;100.00
56912;BME280;42800;53.928;27.662;2023-07-29T02:44:09;98330.44;;;16.56;100.00
56912;BME280;42800;53.928;27.662;2023-07-29T02:46:34;98338.16;;;16.65;100.00
56912;BME280;42800;53.928;27.662;2023-07-29T02:49:02;98342.59;;;16.59;100.00
56912;BME280;42800;53.928;27.662;2023-07-29T02:51:28;98349.28;;;16.41;100.00
56912;BME280;42800;53.928;27.662;2023-07-29T02:53:54;98324.09;;;16.56;100.00
56912;BME280;42800;53.928;27.662;2023-07-29T02:56:20;98323.31;;;16.55;100.00
56912;BME280;42800;53.928;27.662;2023-07-29T02:58:46;98329.84;;;16.65;100.00
56912;BME280;42800;53.928;27.662;2023-07-29T03:01:12;98334.88;;;16.50;100.00
56912;BME280;42800;53.928;27.662;2023-07-29T03:03:39;98334.97;;;16.66;100.00
56912;BME280;42800;53.928;27.662;2023-07-29T03:06:07;98344.03;;;16.67;100.00
56912;BME280;42800;53.928;27.662;2023-07-29T03:08:34;98353.41;;;16.73;100.00
56912;BME280;42800;53.928;27.662;2023-07-29T03:11:05;98346.25;;;16.76;100.00
56912;BME280;42800;53.928;27.662;2023-07-29T03:13:31;98363.84;;;16.85;100.00
56912;BME280;42800;53.928;27.662;2023-07-29T03:16:04;98363.44;;;16.87;100.00
56912;BME280;42800;53.928;27.662;2023-07-29T03:18:30;98369.06;;;16.83;100.00
56912;BME280;42800;53.928;27.662;2023-07-29T03:20:56;98382.91;;;16.83;100.00
56912;BME280;42800;53.928;27.662;2023-07-29T03:23:23;98370.13;;;16.89;100.00
56912;BME280;42800;53.928;27.662;2023-07-29T03:25:49;98372.94;;;16.86;100.00
56912;BME280;42800;53.928;27.662;2023-07-29T03:28:16;98355.56;;;16.85;100.00
56912;BME280;42800;53.928;27.662;2023-07-29T03:30:42;98370.16;;;17.06;100.00
56912;BME280;42800;53.928;27.662;2023-07-29T03:33:08;98373.22;;;17.11;100.00
56912;BME280;42800;53.928;27.662;2023-07-29T03:35:34;98379.91;;;17.14;100.00
56912;BME280;42800;53.928;27.662;2023-07-29T03:38:00;98393.22;;;17.19;100.00
56912;BME280;42800;53.928;27.662;2023-07-29T03:40:26;98407.28;;;17.28;100.00
56912;BME280;42800;53.928;27.662;2023-07-29T03:42:52;98429.22;;;17.19;100.00
56912;BME280;42800;53.928;27.662;2023-07-29T03:45:18;98421.84;;;17.32;100.00
56912;BME280;42800;53.928;27.662;2023-07-29T03:47:44;98420.19;;;17.35;100.00
56912;BME280;42800;53.928;27.662;2023-07-29T03:50:10;98431.28;;;17.35;100.00
56912;BME280;42800;53.928;27.662;2023-07-29T03:52:36;98425.00;;;17.51;100.00
56912;BME280;42800;53.928;27.662;2023-07-29T03:55:02;98435.59;;;17.72;100.00
56912;BME280;42800;53.928;27.662;2023-07-29T03:57:28;98453.00;;;18.58;100.00
56912;BME280;42800;53.928;27.662;2023-07-29T03:59:55;98515.03;;;18.84;100.00
56912;BME280;42800;53.928;27.662;2023-07-29T04:02:21;98537.34;;;19.26;100.00
56912;BME280;42800;53.928;27.662;2023-07-29T04:04:47;98512.94;;;19.17;100.00
56912;BME280;42800;53.928;27.662;2023-07-29T04:07:13;98495.34;;;19.08;100.00
56912;BME280;42800;53.928;27.662;2023-07-29T04:09:39;98493.69;;;18.81;100.00
56912;BME280;42800;53.928;27.662;2023-07-29T04:12:06;98507.44;;;18.68;100.00
56912;BME280;42800;53.928;27.662;2023-07-29T04:14:32;98514.50;;;18.56;100.00
56912;BME280;42800;53.928;27.662;2023-07-29T04:16:58;98526.19;;;18.48;100.00
56912;BME280;42800;53.928;27.662;2023-07-29T04:19:24;98527.59;;;18.56;100.00
56912;BME280;42800;53.928;27.662;2023-07-29T04:21:50;98523.16;;;18.42;100.00
56912;BME280;42800;53.928;27.662;2023-07-29T04:24:16;98521.59;;;18.41;100.00
56912;BME280;42800;53.928;27.662;2023-07-29T04:26:42;98536.81;;;18.53;100.00
56912;BME280;42800;53.928;27.662;2023-07-29T04:29:08;98538.53;;;18.63;100.00
56912;BME280;42800;53.928;27.662;2023-07-29T04:31:35;98517.13;;;19.09;100.00
56912;BME280;42800;53.928;27.662;2023-07-29T04:34:01;98475.66;;;19.31;100.00
56912;BME280;42800;53.928;27.662;2023-07-29T04:36:27;98430.94;;;19.25;100.00
56912;BME280;42800;53.928;27.662;2023-07-29T04:38:53;98423.38;;;19.13;100.00
56912;BME280;42800;53.928;27.662;2023-07-29T04:41:19;98413.03;;;19.14;100.00
56912;BME280;42800;53.928;27.662;2023-07-29T04:43:45;98441.09;;;18.74;100.00
56912;BME280;42800;53.928;27.662;2023-07-29T04:46:11;98460.84;;;18.92;100.00
56912;BME280;42800;53.928;27.662;2023-07-29T04:48:37;98455.88;;;19.00;100.00
56912;BME280;42800;53.928;27.662;2023-07-29T04:51:03;98457.09;;;18.99;100.00
56912;BME280;42800;53.928;27.662;2023-07-29T04:53:29;98415.94;;;19.36;100.00
56912;BME280;42800;53.928;27.662;2023-07-29T04:55:55;98354.03;;;19.61;100.00
56912;BME280;42800;53.928;27.662;2023-07-29T04:58:21;98287.09;;;19.81;100.00
56912;BME280;42800;53.928;27.662;2023-07-29T05:00:47;98241.91;;;19.89;100.00
56912;BME280;42800;53.928;27.662;2023-07-29T05:03:13;98074.69;;;20.09;100.00
56912;BME280;42800;53.928;27.662;2023-07-29T05:05:40;97930.78;;;20.19;100.00
56912;BME280;42800;53.928;27.662;2023-07-29T05:08:06;97839.63;;;20.69;100.00
56912;BME280;42800;53.928;27.662;2023-07-29T05:10:31;97453.63;;;21.79;100.00
56912;BME280;42800;53.928;27.662;2023-07-29T05:12:57;97290.28;;;21.57;100.00
56912;BME280;42800;53.928;27.662;2023-07-29T05:15:23;97213.13;;;21.69;100.00
56912;BME280;42800;53.928;27.662;2023-07-29T05:17:49;97207.50;;;21.64;100.00
56912;BME280;42800;53.928;27.662;2023-07-29T05:20:15;97200.94;;;21.67;100.00
56912;BME280;42800;53.928;27.662;2023-07-29T05:22:42;97162.53;;;21.76;100.00
56912;BME280;42800;53.928;27.662;2023-07-29T05:25:08;97171.72;;;21.62;100.00
56912;BME280;42800;53.928;27.662;2023-07-29T05:27:35;97272.25;;;21.38;100.00
56912;BME280;42800;53.928;27.662;2023-07-29T05:30:00;97213.81;;;21.29;100.00
56912;BME280;42800;53.928;27.662;2023-07-29T05:32:26;97208.81;;;21.33;100.00
56912;BME280;42800;53.928;27.662;2023-07-29T05:34:52;97240.91;;;21.28;100.00
56912;BME280;42800;53.928;27.662;2023-07-29T05:37:18;97258.34;;;20.79;100.00
56912;BME280;42800;53.928;27.662;2023-07-29T05:39:45;97316.81;;;20.64;100.00
56912;BME280;42800;53.928;27.662;2023-07-29T05:42:11;97385.97;;;20.32;100.00
56912;BME280;42800;53.928;27.662;2023-07-29T05:44:37;97501.41;;;20.13;100.00
56912;BME280;42800;53.928;27.662;2023-07-29T05:47:03;97618.44;;;20.00;100.00
56912;BME280;42800;53.928;27.662;2023-07-29T05:49:29;97598.03;;;19.94;100.00
56912;BME280;42800;53.928;27.662;2023-07-29T05:51:55;97523.94;;;20.15;100.00
56912;BME280;42800;53.928;27.662;2023-07-29T05:54:21;97569.44;;;20.03;100.00
56912;BME280;42800;53.928;27.662;2023-07-29T05:56:47;97555.66;;;20.08;100.00
56912;BME280;42800;53.928;27.662;2023-07-29T05:59:13;97561.88;;;20.03;100.00
56912;BME280;42800;53.928;27.662;2023-07-29T06:01:39;97693.81;;;20.02;100.00
56912;BME280;42800;53.928;27.662;2023-07-29T06:04:05;97647.94;;;19.97;100.00
56912;BME280;42800;53.928;27.662;2023-07-29T06:06:31;97542.75;;;19.68;100.00
56912;BME280;42800;53.928;27.662;2023-07-29T06:08:57;97554.94;;;19.89;100.00
56912;BME280;42800;53.928;27.662;2023-07-29T06:11:23;97623.88;;;19.67;100.00
56912;BME280;42800;53.928;27.662;2023-07-29T06:13:50;97680.25;;;19.77;100.00
56912;BME280;42800;53.928;27.662;2023-07-29T06:16:15;97768.00;;;19.87;100.00
56912;BME280;42800;53.928;27.662;2023-07-29T06:18:41;97735.06;;;19.67;100.00
56912;BME280;42800;53.928;27.662;2023-07-29T06:21:07;97737.06;;;19.66;100.00
56912;BME280;42800;53.928;27.662;2023-07-29T06:23:36;97778.41;;;19.55;100.00
56912;BME280;42800;53.928;27.662;2023-07-29T06:26:02;97745.03;;;19.55;100.00
56912;BME280;42800;53.928;27.662;2023-07-29T06:28:28;97870.50;;;19.35;100.00
56912;BME280;42800;53.928;27.662;2023-07-29T06:30:55;98119.03;;;19.34;100.00
56912;BME280;42800;53.928;27.662;2023-07-29T06:33:21;98030.19;;;19.43;100.00
56912;BME280;42800;53.928;27.662;2023-07-29T06:35:47;98076.06;;;19.48;100.00
56912;BME280;42800;53.928;27.662;2023-07-29T06:38:13;98019.72;;;19.47;100.00
56912;BME280;42800;53.928;27.662;2023-07-29T06:40:39;97985.41;;;19.41;100.00
56912;BME280;42800;53.928;27.662;2023-07-29T06:43:05;97956.31;;;19.11;100.00
56912;BME280;42800;53.928;27.662;2023-07-29T06:45:31;97980.38;;;19.27;100.00
56912;BME280;42800;53.928;27.662;2023-07-29T06:47:57;98004.53;;;19.61;100.00
56912;BME280;42800;53.928;27.662;2023-07-29T06:50:23;97896.44;;;19.63;100.00
56912;BME280;42800;53.928;27.662;2023-07-29T06:52:49;97877.09;;;19.60;100.00
56912;BME280;42800;53.928;27.662;2023-07-29T06:55:15;97847.03;;;19.67;100.00
56912;BME280;42800;53.928;27.662;2023-07-29T06:57:41;97895.00;;;19.59;100.00
56912;BME280;42800;53.928;27.662;2023-07-29T07:00:08;97950.88;;;19.73;100.00
56912;BME280;42800;53.928;27.662;2023-07-29T07:02:34;97897.94;;;19.86;100.00
56912;BME280;42800;53.928;27.662;2023-07-29T07:05:01;97860.06;;;19.89;100.00
56912;BME280;42800;53.928;27.662;2023-07-29T07:07:27;97743.44;;;20.04;100.00
56912;BME280;42800;53.928;27.662;2023-07-29T07:09:53;97697.53;;;19.99;100.00
56912;BME280;42800;53.928;27.662;2023-07-29T07:12:19;97795.50;;;19.94;100.00
56912;BME280;42800;53.928;27.662;2023-07-29T07:14:45;97701.41;;;20.02;100.00
56912;BME280;42800;53.928;27.662;2023-07-29T07:17:11;97621.66;;;19.98;100.00
56912;BME280;42800;53.928;27.662;2023-07-29T07:19:37;97735.25;;;20.00;100.00
56912;BME280;42800;53.928;27.662;2023-07-29T07:22:04;97567.84;;;20.20;100.00
56912;BME280;42800;53.928;27.662;2023-07-29T07:24:30;97539.34;;;20.34;100.00
56912;BME280;42800;53.928;27.662;2023-07-29T07:26:56;97618.84;;;20.26;100.00
56912;BME280;42800;53.928;27.662;2023-07-29T07:29:22;97437.31;;;20.31;100.00
56912;BME280;42800;53.928;27.662;2023-07-29T07:31:50;97405.91;;;20.40;100.00
56912;BME280;42800;53.928;27.662;2023-07-29T07:34:17;97409.31;;;20.83;100.00
56912;BME280;42800;53.928;27.662;2023-07-29T07:36:43;97338.56;;;21.34;100.00
56912;BME280;42800;53.928;27.662;2023-07-29T07:39:09;97278.38;;;21.42;100.00
56912;BME280;42800;53.928;27.662;2023-07-29T07:41:35;97215.84;;;21.84;100.00
56912;BME280;42800;53.928;27.662;2023-07-29T07:44:01;97156.41;;;21.98;100.00
56912;BME280;42800;53.928;27.662;2023-07-29T07:46:28;97186.66;;;22.78;100.00
56912;BME280;42800;53.928;27.662;2023-07-29T07:48:54;97212.75;;;22.69;100.00
56912;BME280;42800;53.928;27.662;2023-07-29T07:51:20;97237.47;;;22.30;100.00
56912;BME280;42800;53.928;27.662;2023-07-29T07:53:46;97187.66;;;22.02;100.00
56912;BME280;42800;53.928;27.662;2023-07-29T07:56:12;97175.53;;;22.26;100.00
56912;BME280;42800;53.928;27.662;2023-07-29T07:58:38;97168.72;;;21.66;100.00
56912;BME280;42800;53.928;27.662;2023-07-29T08:01:05;97165.44;;;21.67;100.00
56912;BME280;42800;53.928;27.662;2023-07-29T08:03:31;97198.00;;;21.55;100.00
56912;BME280;42800;53.928;27.662;2023-07-29T08:05:58;97266.66;;;23.33;100.00
56912;BME280;42800;53.928;27.662;2023-07-29T08:08:25;97322.81;;;23.04;100.00
56912;BME280;42800;53.928;27.662;2023-07-29T08:10:52;97366.16;;;22.52;100.00
56912;BME280;42800;53.928;27.662;2023-07-29T08:13:18;97315.06;;;22.46;100.00
56912;BME280;42800;53.928;27.662;2023-07-29T08:15:46;97303.16;;;22.72;100.00
56912;BME280;42800;53.928;27.662;2023-07-29T08:18:12;97320.88;;;22.69;100.00
56912;BME280;42800;53.928;27.662;2023-07-29T08:20:38;97317.72;;;22.82;100.00
56912;BME280;42800;53.928;27.662;2023-07-29T08:23:04;97316.22;;;23.07;100.00
56912;BME280;42800;53.928;27.662;2023-07-29T08:25:30;97250.59;;;22.96;100.00
56912;BME280;42800;53.928;27.662;2023-07-29T08:27:56;97279.13;;;23.38;100.00
56912;BME280;42800;53.928;27.662;2023-07-29T08:30:23;97413.91;;;24.05;100.00
56912;BME280;42800;53.928;27.662;2023-07-29T08:32:49;97498.44;;;23.57;100.00
56912;BME280;42800;53.928;27.662;2023-07-29T08:35:15;97514.59;;;23.68;100.00
56912;BME280;42800;53.928;27.662;2023-07-29T08:37:41;97484.00;;;23.38;100.00
56912;BME280;42800;53.928;27.662;2023-07-29T08:40:08;97472.78;;;23.33;100.00
56912;BME280;42800;53.928;27.662;2023-07-29T08:42:37;97446.59;;;23.10;100.00
56912;BME280;42800;53.928;27.662;2023-07-29T08:45:07;97368.34;;;22.43;100.00
56912;BME280;42800;53.928;27.662;2023-07-29T08:47:34;97319.06;;;22.40;100.00
56912;BME280;42800;53.928;27.662;2023-07-29T08:50:01;97346.47;;;22.62;100.00
56912;BME280;42800;53.928;27.662;2023-07-29T08:52:29;97378.00;;;22.88;100.00
56912;BME280;42800;53.928;27.662;2023-07-29T08:54:55;97441.09;;;22.95;100.00
56912;BME280;42800;53.928;27.662;2023-07-29T08:57:22;97462.97;;;22.96;100.00
56912;BME280;42800;53.928;27.662;2023-07-29T08:59:48;97455.41;;;23.02;100.00
56912;BME280;42800;53.928;27.662;2023-07-29T09:02:17;97464.25;;;22.81;100.00
56912;BME280;42800;53.928;27.662;2023-07-29T09:04:44;97392.81;;;22.94;100.00
56912;BME280;42800;53.928;27.662;2023-07-29T09:07:10;97430.50;;;23.25;100.00
56912;BME280;42800;53.928;27.662;2023-07-29T09:09:36;97482.22;;;23.15;100.00
56912;BME280;42800;53.928;27.662;2023-07-29T09:12:03;97435.66;;;23.06;100.00
56912;BME280;42800;53.928;27.662;2023-07-29T09:14:29;97466.78;;;22.78;100.00
56912;BME280;42800;53.928;27.662;2023-07-29T09:16:55;97576.91;;;24.21;100.00
56912;BME280;42800;53.928;27.662;2023-07-29T09:19:21;97698.63;;;24.77;100.00
56912;BME280;42800;53.928;27.662;2023-07-29T09:21:50;97785.75;;;25.05;100.00
56912;BME280;42800;53.928;27.662;2023-07-29T09:24:16;97845.47;;;25.69;100.00
56912;BME280;42800;53.928;27.662;2023-07-29T09:26:48;97848.16;;;26.33;100.00
56912;BME280;42800;53.928;27.662;2023-07-29T09:29:15;97836.28;;;26.06;100.00
56912;BME280;42800;53.928;27.662;2023-07-29T09:31:41;97779.63;;;26.13;100.00
56912;BME280;42800;53.928;27.662;2023-07-29T09:34:06;97854.22;;;26.80;100.00
56912;BME280;42800;53.928;27.662;2023-07-29T09:36:33;97908.91;;;26.84;100.00
56912;BME280;42800;53.928;27.662;2023-07-29T09:39:01;97885.69;;;26.29;100.00
56912;BME280;42800;53.928;27.662;2023-07-29T09:41:29;97923.06;;;27.07;100.00
56912;BME280;42800;53.928;27.662;2023-07-29T09:43:56;97917.72;;;26.12;100.00
56912;BME280;42800;53.928;27.662;2023-07-29T09:46:24;97895.50;;;26.51;100.00
56912;BME280;42800;53.928;27.662;2023-07-29T09:48:54;97902.63;;;26.46;100.00
56912;BME280;42800;53.928;27.662;2023-07-29T09:51:21;97868.69;;;25.75;100.00
56912;BME280;42800;53.928;27.662;2023-07-29T09:53:48;97887.75;;;25.60;100.00
56912;BME280;42800;53.928;27.662;2023-07-29T09:56:15;97802.75;;;25.54;100.00
56912;BME280;42800;53.928;27.662;2023-07-29T09:58:43;97870.22;;;26.02;100.00
56912;BME280;42800;53.928;27.662;2023-07-29T10:01:11;97806.72;;;25.36;100.00
56912;BME280;42800;53.928;27.662;2023-07-29T10:03:37;97857.06;;;25.19;100.00
56912;BME280;42800;53.928;27.662;2023-07-29T10:06:04;97831.44;;;25.38;100.00
56912;BME280;42800;53.928;27.662;2023-07-29T10:08:31;97865.97;;;25.49;100.00
56912;BME280;42800;53.928;27.662;2023-07-29T10:10:59;97854.09;;;25.08;100.00
56912;BME280;42800;53.928;27.662;2023-07-29T10:13:28;97841.13;;;24.84;100.00
56912;BME280;42800;53.928;27.662;2023-07-29T10:15:55;97829.44;;;24.65;100.00
56912;BME280;42800;53.928;27.662;2023-07-29T10:18:22;97834.97;;;24.80;100.00
56912;BME280;42800;53.928;27.662;2023-07-29T10:20:48;97859.16;;;24.37;100.00
56912;BME280;42800;53.928;27.662;2023-07-29T10:23:18;97858.31;;;24.10;100.00
56912;BME280;42800;53.928;27.662;2023-07-29T10:25:47;97810.72;;;23.75;100.00
56912;BME280;42800;53.928;27.662;2023-07-29T10:28:17;97813.31;;;23.29;100.00
56912;BME280;42800;53.928;27.662;2023-07-29T10:30:45;97801.94;;;23.17;100.00
56912;BME280;42800;53.928;27.662;2023-07-29T10:33:11;97789.19;;;23.46;100.00
56912;BME280;42800;53.928;27.662;2023-07-29T10:35:37;97863.69;;;24.34;100.00
56912;BME280;42800;53.928;27.662;2023-07-29T10:38:05;97892.75;;;24.98;100.00
56912;BME280;42800;53.928;27.662;2023-07-29T10:40:45;97885.06;;;25.77;100.00
56912;BME280;42800;53.928;27.662;2023-07-29T10:43:18;97941.78;;;26.18;100.00
56912;BME280;42800;53.928;27.662;2023-07-29T10:45:45;97940.59;;;26.79;100.00
56912;BME280;42800;53.928;27.662;2023-07-29T10:48:11;97955.69;;;26.82;100.00
56912;BME280;42800;53.928;27.662;2023-07-29T10:50:37;97976.59;;;26.75;100.00
56912;BME280;42800;53.928;27.662;2023-07-29T10:53:04;97969.16;;;25.92;100.00
56912;BME280;42800;53.928;27.662;2023-07-29T10:55:33;97988.34;;;25.99;100.00
56912;BME280;42800;53.928;27.662;2023-07-29T10:58:08;97998.78;;;25.41;100.00
56912;BME280;42800;53.928;27.662;2023-07-29T11:00:34;97968.78;;;25.26;100.00
56912;BME280;42800;53.928;27.662;2023-07-29T11:03:02;97951.75;;;25.09;100.00
56912;BME280;42800;53.928;27.662;2023-07-29T11:05:43;97936.34;;;24.79;100.00
56912;BME280;42800;53.928;27.662;2023-07-29T11:08:22;97907.91;;;24.86;100.00
56912;BME280;42800;53.928;27.662;2023-07-29T11:11:01;97979.72;;;25.24;100.00
56912;BME280;42800;53.928;27.662;2023-07-29T11:13:27;97979.31;;;24.91;100.00
56912;BME280;42800;53.928;27.662;2023-07-29T11:15:54;97986.88;;;24.64;100.00
56912;BME280;42800;53.928;27.662;2023-07-29T11:18:25;97959.19;;;24.72;100.00
56912;BME280;42800;53.928;27.662;2023-07-29T11:20:53;97908.00;;;24.51;100.00
56912;BME280;42800;53.928;27.662;2023-07-29T11:23:20;97899.28;;;24.49;100.00
56912;BME280;42800;53.928;27.662;2023-07-29T11:25:47;97863.84;;;24.25;100.00
56912;BME280;42800;53.928;27.662;2023-07-29T11:28:15;97920.22;;;24.33;100.00
56912;BME280;42800;53.928;27.662;2023-07-29T11:30:41;97894.25;;;23.97;100.00
56912;BME280;42800;53.928;27.662;2023-07-29T11:33:07;97910.88;;;23.41;100.00
56912;BME280;42800;53.928;27.662;2023-07-29T11:35:34;97906.03;;;22.97;100.00
56912;BME280;42800;53.928;27.662;2023-07-29T11:38:00;97910.66;;;23.00;100.00
56912;BME280;42800;53.928;27.662;2023-07-29T11:40:26;97913.16;;;22.98;100.00
56912;BME280;42800;53.928;27.662;2023-07-29T11:42:52;97869.78;;;22.49;100.00
56912;BME280;42800;53.928;27.662;2023-07-29T11:45:19;97886.53;;;22.88;100.00
56912;BME280;42800;53.928;27.662;2023-07-29T11:47:46;97754.91;;;22.71;100.00
56912;BME280;42800;53.928;27.662;2023-07-29T11:50:13;97845.03;;;23.11;100.00
56912;BME280;42800;53.928;27.662;2023-07-29T11:52:43;97829.38;;;23.48;100.00
56912;BME280;42800;53.928;27.662;2023-07-29T11:55:09;97891.31;;;23.86;100.00
56912;BME280;42800;53.928;27.662;2023-07-29T11:57:36;97910.84;;;24.01;100.00
56912;BME280;42800;53.928;27.662;2023-07-29T12:00:04;97937.47;;;24.11;100.00
56912;BME280;42800;53.928;27.662;2023-07-29T12:02:32;97934.16;;;24.12;100.00
56912;BME280;42800;53.928;27.662;2023-07-29T12:04:59;97944.38;;;24.15;100.00
56912;BME280;42800;53.928;27.662;2023-07-29T12:07:25;97942.03;;;24.29;100.00
56912;BME280;42800;53.928;27.662;2023-07-29T12:09:52;97997.59;;;24.15;100.00
56912;BME280;42800;53.928;27.662;2023-07-29T12:12:18;97962.22;;;24.33;100.00
56912;BME280;42800;53.928;27.662;2023-07-29T12:14:45;97939.41;;;24.05;100.00
56912;BME280;42800;53.928;27.662;2023-07-29T12:17:12;97957.25;;;24.07;100.00
56912;BME280;42800;53.928;27.662;2023-07-29T12:19:39;97959.44;;;23.68;100.00
56912;BME280;42800;53.928;27.662;2023-07-29T12:22:07;97954.78;;;23.65;100.00
56912;BME280;42800;53.928;27.662;2023-07-29T12:24:35;97933.28;;;23.71;100.00
56912;BME280;42800;53.928;27.662;2023-07-29T12:27:03;97941.16;;;23.58;100.00
56912;BME280;42800;53.928;27.662;2023-07-29T12:29:31;97906.28;;;23.53;100.00
56912;BME280;42800;53.928;27.662;2023-07-29T12:31:58;97949.19;;;23.50;100.00
56912;BME280;42800;53.928;27.662;2023-07-29T12:34:26;97945.59;;;23.64;100.00
56912;BME280;42800;53.928;27.662;2023-07-29T12:36:52;97971.47;;;24.04;100.00
56912;BME280;42800;53.928;27.662;2023-07-29T12:39:20;97927.13;;;24.17;100.00